createdAt,value
2018-04-12T00:01:35.725Z,4.53
2018-04-12T00:07:26.440Z,4.54
2018-04-12T00:13:17.194Z,4.67
2018-04-12T00:19:07.880Z,4.37
2018-04-12T00:24:58.579Z,4.71
2018-04-12T00:30:49.265Z,4.45
2018-04-12T00:36:40.020Z,5.15
2018-04-12T00:45:39.439Z,5.49
2018-04-12T00:51:30.170Z,5.25
2018-04-12T00:57:20.885Z,5.89
2018-04-12T01:03:11.571Z,5.59
2018-04-12T01:09:02.304Z,7.07
2018-04-12T01:14:52.971Z,6.13
2018-04-12T01:20:43.672Z,6.36
2018-04-12T01:26:34.412Z,6.97
2018-04-12T01:32:25.089Z,7.95
2018-04-12T01:38:15.800Z,6.82
2018-04-12T01:44:06.519Z,7.47
2018-04-12T01:49:57.190Z,7.71
2018-04-12T01:55:48.016Z,7.99
2018-04-12T02:01:38.645Z,7.05
2018-04-12T02:07:29.397Z,6.51
2018-04-12T02:13:20.103Z,6.04
2018-04-12T02:19:10.762Z,7.14
2018-04-12T02:25:01.439Z,5.93
2018-04-12T02:30:52.237Z,7.26
2018-04-12T02:36:42.881Z,6.57
2018-04-12T02:42:33.555Z,6.62
2018-04-12T02:48:24.298Z,6.7
2018-04-12T02:54:14.959Z,6.63
2018-04-12T03:00:05.720Z,6.79
2018-04-12T03:05:56.477Z,6.14
2018-04-12T03:11:47.147Z,6.39
2018-04-12T03:17:37.832Z,6.01
2018-04-12T03:23:28.578Z,6.8
2018-04-12T03:29:19.224Z,6.32
2018-04-12T03:35:09.978Z,6.05
2018-04-12T03:41:00.685Z,5.34
2018-04-12T03:46:51.342Z,6.15
2018-04-12T03:52:42.063Z,6.23
2018-04-12T03:58:32.777Z,6.99
2018-04-12T04:04:23.488Z,8.05
2018-04-12T04:10:14.233Z,8.59
2018-04-12T04:16:04.902Z,7.86
2018-04-12T04:21:55.617Z,8.59
2018-04-12T04:27:46.316Z,8.02
2018-04-12T04:33:37.026Z,7.18
2018-04-12T04:39:27.747Z,6.59
2018-04-12T04:45:18.440Z,6.52
2018-04-12T04:51:09.203Z,6.8
2018-04-12T04:56:59.908Z,6.84
2018-04-12T05:02:50.661Z,6.62
2018-04-12T05:08:41.278Z,6.3
2018-04-12T05:14:32.035Z,6.4
2018-04-12T05:20:22.669Z,6.22
2018-04-12T05:26:13.382Z,7.22
2018-04-12T05:32:04.119Z,6.88
2018-04-12T05:37:54.857Z,8.98
2018-04-12T05:43:45.547Z,9.2
2018-04-12T05:49:36.227Z,9.41
2018-04-12T05:55:26.926Z,8.51
2018-04-12T06:01:17.714Z,7.25
2018-04-12T06:07:08.378Z,7.44
2018-04-12T06:12:59.097Z,9.5
2018-04-12T06:18:49.815Z,12.69
2018-04-12T06:24:40.481Z,11.9
2018-04-12T06:30:31.171Z,9.91
2018-04-12T06:36:21.915Z,10.76
2018-04-12T06:42:12.622Z,10.36
2018-04-12T06:48:03.324Z,8.46
2018-04-12T06:53:54.089Z,12.24
2018-04-12T06:59:44.739Z,10.41
2018-04-12T07:05:35.478Z,9.93
2018-04-12T07:11:26.178Z,9.15
2018-04-12T07:17:16.862Z,9.31
2018-04-12T07:23:07.590Z,9.45
2018-04-12T07:28:58.271Z,9.6
2018-04-12T07:34:48.959Z,11.21
2018-04-12T07:40:40.686Z,12.6
2018-04-12T07:46:30.451Z,13.49
2018-04-12T07:52:21.137Z,17.06
2018-04-12T07:58:11.781Z,16.64
2018-04-12T08:04:02.524Z,18.18
2018-04-12T08:09:53.267Z,14.14
2018-04-12T08:15:43.939Z,14.96
2018-04-12T08:21:34.647Z,15.32
2018-04-12T08:27:25.357Z,13.29
2018-04-12T08:33:16.073Z,11.75
2018-04-12T08:39:06.777Z,11.04
2018-04-12T08:44:57.528Z,10.52
2018-04-12T08:50:48.222Z,12.42
2018-04-12T08:56:38.891Z,7.85
2018-04-12T09:02:29.597Z,6.6
2018-04-12T09:08:20.345Z,5.19
2018-04-12T09:14:11.014Z,6.17
2018-04-12T09:20:01.784Z,5.42
2018-04-12T09:25:52.471Z,5.29
2018-04-12T09:31:43.160Z,6.28
2018-04-12T09:37:33.891Z,6.05
2018-04-12T09:43:24.594Z,7.1
2018-04-12T09:49:15.371Z,8.74
2018-04-12T09:55:06.019Z,6.63
2018-04-12T10:00:56.738Z,6.3
2018-04-12T10:06:47.450Z,4.09
2018-04-12T10:12:38.248Z,4.81
2018-04-12T10:18:28.843Z,3.58
2018-04-12T10:24:19.595Z,3.08
2018-04-12T10:30:10.318Z,5.76
2018-04-12T10:36:01.003Z,7.22
2018-04-12T10:41:51.715Z,6.37
2018-04-12T10:47:42.434Z,5.86
2018-04-12T10:53:33.186Z,4.71
2018-04-12T10:59:23.933Z,3.53
2018-04-12T11:05:14.604Z,3.39
2018-04-12T11:11:05.295Z,2.63
2018-04-12T11:16:56.033Z,3.06
2018-04-12T11:22:46.749Z,2.7
2018-04-12T11:28:37.456Z,5.12
2018-04-12T11:34:28.230Z,4.65
2018-04-12T11:40:18.938Z,2.59
2018-04-12T11:46:09.625Z,2.19
2018-04-12T11:52:00.348Z,2.35
2018-04-12T11:57:51.072Z,3.23
2018-04-12T12:03:41.820Z,2.09
2018-04-12T12:09:32.540Z,2.58
2018-04-12T12:15:23.303Z,2.13
2018-04-12T12:21:14.057Z,2.43
2018-04-12T12:27:04.750Z,2.62
2018-04-12T12:32:55.467Z,2.17
2018-04-12T12:38:46.301Z,3.66
2018-04-12T12:44:36.922Z,2.73
2018-04-12T12:50:27.625Z,3.07
2018-04-12T12:56:18.353Z,2.43
2018-04-12T13:02:09.131Z,3.06
2018-04-12T13:07:59.838Z,2.71
2018-04-12T13:13:50.563Z,2.51
2018-04-12T13:19:41.306Z,2.32
2018-04-12T13:25:31.986Z,2.27
2018-04-12T13:31:22.730Z,2.93
2018-04-12T13:37:13.489Z,3.22
2018-04-12T13:43:04.168Z,2.34
2018-04-12T13:48:54.935Z,2.18
2018-04-12T13:54:45.635Z,2.11
2018-04-12T14:00:36.376Z,2.79
2018-04-12T14:06:27.177Z,2.57
2018-04-12T14:12:17.821Z,2.44
2018-04-12T14:18:08.595Z,3.83
2018-04-12T14:23:59.274Z,2.75
2018-04-12T14:29:50.108Z,2.81
2018-04-12T14:35:40.697Z,7.36
2018-04-12T14:41:31.469Z,3.1
2018-04-12T14:47:22.207Z,2.89
2018-04-12T14:53:12.892Z,3.6
2018-04-12T14:59:03.623Z,3.49
2018-04-12T15:04:54.331Z,5.57
2018-04-12T15:10:45.061Z,7.74
2018-04-12T15:16:35.783Z,5.51
2018-04-12T15:22:26.495Z,6.78
2018-04-12T15:28:17.211Z,4.64
2018-04-12T15:34:07.923Z,4.39
2018-04-12T15:39:58.648Z,3.95
2018-04-12T15:45:49.389Z,3.83
2018-04-12T15:51:40.088Z,3.11
2018-04-12T15:57:30.817Z,3.65
2018-04-12T16:03:21.526Z,3.11
2018-04-12T16:09:12.223Z,2.92
2018-04-12T16:15:03.007Z,3.03
2018-04-12T16:20:53.706Z,3.75
2018-04-12T16:26:44.411Z,5.56
2018-04-12T16:32:35.111Z,5.21
2018-04-12T16:38:25.838Z,5.17
2018-04-12T16:44:16.537Z,2.5
2018-04-12T16:50:07.237Z,2.86
2018-04-12T16:55:57.977Z,3.3
2018-04-12T17:01:48.676Z,3.09
2018-04-12T17:07:39.472Z,3.5
2018-04-12T17:13:30.161Z,3.36
2018-04-12T17:19:20.830Z,3.58
2018-04-12T17:25:11.553Z,3.76
2018-04-12T17:31:02.305Z,3.75
2018-04-12T17:36:53.031Z,3.7
2018-04-12T17:42:43.706Z,4.44
2018-04-12T17:48:34.441Z,4.85
2018-04-12T17:54:25.218Z,4.43
2018-04-12T18:00:15.816Z,4.88
2018-04-12T18:06:06.555Z,5.29
2018-04-12T18:11:57.293Z,6.26
2018-04-12T18:17:47.983Z,6.1
2018-04-12T18:23:38.698Z,6.28
2018-04-12T18:29:29.396Z,4.95
2018-04-12T18:35:20.175Z,4.89
2018-04-12T18:41:10.915Z,5.51
2018-04-12T18:47:01.584Z,6.26
2018-04-12T18:52:52.249Z,6.45
2018-04-12T18:58:42.978Z,5.23
2018-04-12T19:04:33.677Z,5.31
2018-04-12T19:10:24.445Z,6.86
2018-04-12T19:16:15.105Z,4.77
2018-04-12T19:22:05.828Z,5.45
2018-04-12T19:27:56.593Z,5.4
2018-04-12T19:33:47.360Z,7.53
2018-04-12T19:39:38.035Z,5.18
2018-04-12T19:45:28.709Z,5.25
2018-04-12T19:51:19.393Z,7.19
2018-04-12T19:57:10.110Z,14.64
2018-04-12T20:03:00.841Z,16.04
2018-04-12T20:08:51.658Z,12.73
2018-04-12T20:14:42.286Z,6.83
2018-04-12T20:20:32.954Z,5.96
2018-04-12T20:26:23.670Z,6.31
2018-04-12T20:32:14.422Z,6.05
2018-04-12T20:38:05.134Z,6.36
2018-04-12T20:43:55.845Z,6.67
2018-04-12T20:49:46.524Z,6.88
2018-04-12T20:55:37.273Z,5.89
2018-04-12T21:01:27.935Z,6.32
2018-04-12T21:07:18.720Z,6.63
2018-04-12T21:13:09.377Z,6.69
2018-04-12T21:19:00.124Z,5.88
2018-04-12T21:24:50.839Z,6.46
2018-04-12T21:30:41.519Z,6.22
2018-04-12T21:36:32.285Z,5.92
2018-04-12T21:42:22.974Z,6.21
2018-04-12T21:48:13.656Z,5.78
2018-04-12T21:54:04.405Z,5.18
2018-04-12T21:59:55.096Z,6.32
2018-04-12T22:05:45.736Z,6.4
2018-04-12T22:11:36.480Z,5.46
2018-04-12T22:17:27.212Z,6.93
2018-04-12T22:23:17.925Z,5.18
2018-04-12T22:29:08.606Z,6.64
2018-04-12T22:34:59.323Z,5.82
2018-04-12T22:40:50.033Z,5.65
2018-04-12T22:46:40.800Z,5.42
2018-04-12T22:52:31.430Z,6.39
2018-04-12T22:58:22.172Z,4.66
2018-04-12T23:04:12.874Z,4.91
2018-04-12T23:10:03.591Z,3.86
2018-04-12T23:15:54.339Z,4.71
2018-04-12T23:21:45.043Z,4.06
2018-04-12T23:27:35.750Z,3.82
2018-04-12T23:33:26.438Z,4.19
2018-04-12T23:39:17.137Z,4.36
2018-04-12T23:45:07.869Z,2.98
2018-04-12T23:50:58.628Z,2.9
2018-04-12T23:56:49.259Z,2.99
